sensor_id;sensor_type;location;lat;lon;timestamp;P1;durP1;ratioP1;P2;durP2;ratioP2
16436;SDS011;8328;52.206;21.006;2022-11-03T00:01:39;87.47;;;36.13;;
16436;SDS011;8328;52.206;21.006;2022-11-03T00:04:07;92.70;;;37.58;;
16436;SDS011;8328;52.206;21.006;2022-11-03T00:06:35;88.20;;;37.40;;
16436;SDS011;8328;52.206;21.006;2022-11-03T00:09:02;90.15;;;37.05;;
16436;SDS011;8328;52.206;21.006;2022-11-03T00:11:31;86.13;;;36.28;;
16436;SDS011;8328;52.206;21.006;2022-11-03T00:13:58;84.78;;;35.97;;
16436;SDS011;8328;52.206;21.006;2022-11-03T00:16:24;94.17;;;38.33;;
16436;SDS011;8328;52.206;21.006;2022-11-03T00:18:50;85.55;;;36.20;;
16436;SDS011;8328;52.206;21.006;2022-11-03T00:21:17;84.15;;;36.00;;
16436;SDS011;8328;52.206;21.006;2022-11-03T00:23:43;87.15;;;36.80;;
16436;SDS011;8328;52.206;21.006;2022-11-03T00:26:17;87.78;;;37.42;;
16436;SDS011;8328;52.206;21.006;2022-11-03T00:28:48;89.20;;;37.20;;
16436;SDS011;8328;52.206;21.006;2022-11-03T00:31:16;88.70;;;37.35;;
16436;SDS011;8328;52.206;21.006;2022-11-03T00:33:46;94.18;;;38.95;;
16436;SDS011;8328;52.206;21.006;2022-11-03T00:36:14;91.18;;;38.22;;
16436;SDS011;8328;52.206;21.006;2022-11-03T00:38:42;90.95;;;37.75;;
16436;SDS011;8328;52.206;21.006;2022-11-03T00:41:08;94.18;;;38.88;;
16436;SDS011;8328;52.206;21.006;2022-11-03T00:43:38;92.50;;;38.45;;
16436;SDS011;8328;52.206;21.006;2022-11-03T00:46:04;88.00;;;36.85;;
16436;SDS011;8328;52.206;21.006;2022-11-03T00:48:37;91.93;;;37.60;;
16436;SDS011;8328;52.206;21.006;2022-11-03T00:51:07;91.97;;;37.55;;
16436;SDS011;8328;52.206;21.006;2022-11-03T00:53:38;90.88;;;37.33;;
16436;SDS011;8328;52.206;21.006;2022-11-03T00:56:16;102.47;;;42.08;;
16436;SDS011;8328;52.206;21.006;2022-11-03T00:58:43;96.28;;;39.38;;
16436;SDS011;8328;52.206;21.006;2022-11-03T01:01:14;95.50;;;39.42;;
16436;SDS011;8328;52.206;21.006;2022-11-03T01:03:42;94.50;;;38.97;;
16436;SDS011;8328;52.206;21.006;2022-11-03T01:06:28;99.57;;;39.75;;
16436;SDS011;8328;52.206;21.006;2022-11-03T01:09:36;92.70;;;37.80;;
16436;SDS011;8328;52.206;21.006;2022-11-03T01:12:07;95.32;;;37.58;;
16436;SDS011;8328;52.206;21.006;2022-11-03T01:14:43;100.03;;;39.70;;
16436;SDS011;8328;52.206;21.006;2022-11-03T01:19:42;97.28;;;38.63;;
16436;SDS011;8328;52.206;21.006;2022-11-03T01:22:08;95.80;;;38.08;;
16436;SDS011;8328;52.206;21.006;2022-11-03T01:24:34;95.13;;;37.83;;
16436;SDS011;8328;52.206;21.006;2022-11-03T01:27:00;96.05;;;37.58;;
16436;SDS011;8328;52.206;21.006;2022-11-03T01:29:26;100.53;;;37.00;;
16436;SDS011;8328;52.206;21.006;2022-11-03T01:31:52;94.23;;;37.40;;
16436;SDS011;8328;52.206;21.006;2022-11-03T01:34:18;91.67;;;36.87;;
16436;SDS011;8328;52.206;21.006;2022-11-03T01:36:45;92.25;;;36.35;;
16436;SDS011;8328;52.206;21.006;2022-11-03T01:39:13;95.97;;;37.95;;
16436;SDS011;8328;52.206;21.006;2022-11-03T01:41:42;92.50;;;37.13;;
16436;SDS011;8328;52.206;21.006;2022-11-03T01:46:48;89.30;;;35.77;;
16436;SDS011;8328;52.206;21.006;2022-11-03T01:49:44;93.60;;;37.55;;
16436;SDS011;8328;52.206;21.006;2022-11-03T01:52:20;93.07;;;37.70;;
16436;SDS011;8328;52.206;21.006;2022-11-03T01:54:56;90.30;;;36.05;;
16436;SDS011;8328;52.206;21.006;2022-11-03T01:57:28;88.75;;;36.15;;
16436;SDS011;8328;52.206;21.006;2022-11-03T01:59:58;87.53;;;35.78;;
16436;SDS011;8328;52.206;21.006;2022-11-03T02:02:25;93.60;;;37.25;;
16436;SDS011;8328;52.206;21.006;2022-11-03T02:05:01;91.50;;;36.83;;
16436;SDS011;8328;52.206;21.006;2022-11-03T02:07:37;90.10;;;36.13;;
16436;SDS011;8328;52.206;21.006;2022-11-03T02:10:37;94.25;;;37.30;;
16436;SDS011;8328;52.206;21.006;2022-11-03T02:13:11;91.90;;;36.70;;
16436;SDS011;8328;52.206;21.006;2022-11-03T02:15:43;88.80;;;35.78;;
16436;SDS011;8328;52.206;21.006;2022-11-03T02:18:15;89.38;;;36.58;;
16436;SDS011;8328;52.206;21.006;2022-11-03T02:20:45;92.03;;;37.17;;
16436;SDS011;8328;52.206;21.006;2022-11-03T02:26:11;92.35;;;36.60;;
16436;SDS011;8328;52.206;21.006;2022-11-03T02:28:39;94.30;;;37.95;;
16436;SDS011;8328;52.206;21.006;2022-11-03T02:31:09;89.57;;;36.17;;
16436;SDS011;8328;52.206;21.006;2022-11-03T02:34:06;91.78;;;37.83;;
16436;SDS011;8328;52.206;21.006;2022-11-03T02:37:07;92.57;;;37.08;;
16436;SDS011;8328;52.206;21.006;2022-11-03T02:40:02;91.75;;;37.67;;
16436;SDS011;8328;52.206;21.006;2022-11-03T02:42:33;95.00;;;37.42;;
16436;SDS011;8328;52.206;21.006;2022-11-03T02:45:04;95.53;;;38.45;;
16436;SDS011;8328;52.206;21.006;2022-11-03T02:47:34;89.63;;;36.35;;
16436;SDS011;8328;52.206;21.006;2022-11-03T02:50:03;90.00;;;36.50;;
16436;SDS011;8328;52.206;21.006;2022-11-03T02:52:39;90.53;;;37.42;;
16436;SDS011;8328;52.206;21.006;2022-11-03T02:55:42;84.65;;;35.53;;
16436;SDS011;8328;52.206;21.006;2022-11-03T03:01:16;88.38;;;36.65;;
16436;SDS011;8328;52.206;21.006;2022-11-03T03:04:02;90.40;;;36.88;;
16436;SDS011;8328;52.206;21.006;2022-11-03T03:06:42;90.55;;;36.70;;
16436;SDS011;8328;52.206;21.006;2022-11-03T03:09:20;88.25;;;36.42;;
16436;SDS011;8328;52.206;21.006;2022-11-03T03:11:54;91.38;;;37.00;;
16436;SDS011;8328;52.206;21.006;2022-11-03T03:14:27;88.00;;;35.80;;
16436;SDS011;8328;52.206;21.006;2022-11-03T03:20:10;88.80;;;36.72;;
16436;SDS011;8328;52.206;21.006;2022-11-03T03:25:31;91.40;;;37.00;;
16436;SDS011;8328;52.206;21.006;2022-11-03T03:28:39;90.07;;;36.65;;
16436;SDS011;8328;52.206;21.006;2022-11-03T03:31:01;90.32;;;37.08;;
16436;SDS011;8328;52.206;21.006;2022-11-03T03:33:32;84.65;;;35.25;;
16436;SDS011;8328;52.206;21.006;2022-11-03T03:36:00;97.53;;;39.97;;
16436;SDS011;8328;52.206;21.006;2022-11-03T03:38:33;87.72;;;36.10;;
16436;SDS011;8328;52.206;21.006;2022-11-03T03:41:03;97.65;;;39.55;;
16436;SDS011;8328;52.206;21.006;2022-11-03T03:43:31;90.35;;;37.33;;
16436;SDS011;8328;52.206;21.006;2022-11-03T03:46:17;88.45;;;36.05;;
16436;SDS011;8328;52.206;21.006;2022-11-03T03:48:50;85.03;;;34.90;;
16436;SDS011;8328;52.206;21.006;2022-11-03T03:51:17;87.20;;;36.00;;
16436;SDS011;8328;52.206;21.006;2022-11-03T03:53:48;91.10;;;37.72;;
16436;SDS011;8328;52.206;21.006;2022-11-03T03:56:22;92.22;;;38.00;;
16436;SDS011;8328;52.206;21.006;2022-11-03T03:58:58;88.10;;;36.50;;
16436;SDS011;8328;52.206;21.006;2022-11-03T04:01:24;90.17;;;37.13;;
16436;SDS011;8328;52.206;21.006;2022-11-03T04:03:50;85.97;;;35.57;;
16436;SDS011;8328;52.206;21.006;2022-11-03T04:06:16;89.57;;;37.87;;
16436;SDS011;8328;52.206;21.006;2022-11-03T04:08:41;89.73;;;37.10;;
16436;SDS011;8328;52.206;21.006;2022-11-03T04:11:11;92.55;;;37.55;;
16436;SDS011;8328;52.206;21.006;2022-11-03T04:13:56;90.88;;;37.33;;
16436;SDS011;8328;52.206;21.006;2022-11-03T04:16:40;89.03;;;36.33;;
16436;SDS011;8328;52.206;21.006;2022-11-03T04:19:24;97.50;;;40.03;;
16436;SDS011;8328;52.206;21.006;2022-11-03T04:22:08;89.72;;;36.72;;
16436;SDS011;8328;52.206;21.006;2022-11-03T04:24:40;91.70;;;36.35;;
16436;SDS011;8328;52.206;21.006;2022-11-03T04:27:29;93.85;;;37.78;;
16436;SDS011;8328;52.206;21.006;2022-11-03T04:30:09;88.40;;;35.92;;
16436;SDS011;8328;52.206;21.006;2022-11-03T04:32:46;91.00;;;38.40;;
16436;SDS011;8328;52.206;21.006;2022-11-03T04:35:20;87.85;;;36.60;;
16436;SDS011;8328;52.206;21.006;2022-11-03T04:38:02;88.15;;;36.13;;
16436;SDS011;8328;52.206;21.006;2022-11-03T04:40:33;86.68;;;36.13;;
16436;SDS011;8328;52.206;21.006;2022-11-03T04:43:00;90.57;;;36.75;;
16436;SDS011;8328;52.206;21.006;2022-11-03T04:45:34;92.82;;;38.33;;
16436;SDS011;8328;52.206;21.006;2022-11-03T04:48:08;87.90;;;36.40;;
16436;SDS011;8328;52.206;21.006;2022-11-03T04:50:40;90.25;;;36.80;;
16436;SDS011;8328;52.206;21.006;2022-11-03T04:53:14;87.72;;;36.53;;
16436;SDS011;8328;52.206;21.006;2022-11-03T04:55:41;87.85;;;36.38;;
16436;SDS011;8328;52.206;21.006;2022-11-03T04:58:13;92.25;;;37.53;;
16436;SDS011;8328;52.206;21.006;2022-11-03T05:00:50;89.97;;;36.40;;
16436;SDS011;8328;52.206;21.006;2022-11-03T05:03:32;91.05;;;36.80;;
16436;SDS011;8328;52.206;21.006;2022-11-03T05:06:00;90.28;;;36.90;;
16436;SDS011;8328;52.206;21.006;2022-11-03T05:08:38;88.72;;;36.40;;
16436;SDS011;8328;52.206;21.006;2022-11-03T05:11:11;91.80;;;37.47;;
16436;SDS011;8328;52.206;21.006;2022-11-03T05:13:43;91.80;;;37.90;;
16436;SDS011;8328;52.206;21.006;2022-11-03T05:16:09;90.07;;;37.57;;
16436;SDS011;8328;52.206;21.006;2022-11-03T05:18:35;93.03;;;37.08;;
16436;SDS011;8328;52.206;21.006;2022-11-03T05:21:07;93.43;;;37.50;;
16436;SDS011;8328;52.206;21.006;2022-11-03T05:23:36;92.95;;;37.50;;
16436;SDS011;8328;52.206;21.006;2022-11-03T05:26:10;92.90;;;38.03;;
16436;SDS011;8328;52.206;21.006;2022-11-03T05:28:51;89.97;;;35.88;;
16436;SDS011;8328;52.206;21.006;2022-11-03T05:31:25;86.93;;;35.75;;
16436;SDS011;8328;52.206;21.006;2022-11-03T05:33:57;91.55;;;36.53;;
16436;SDS011;8328;52.206;21.006;2022-11-03T05:36:27;89.57;;;36.20;;
16436;SDS011;8328;52.206;21.006;2022-11-03T05:38:55;91.00;;;36.65;;
16436;SDS011;8328;52.206;21.006;2022-11-03T05:41:28;93.80;;;37.72;;
16436;SDS011;8328;52.206;21.006;2022-11-03T05:43:56;92.15;;;36.97;;
16436;SDS011;8328;52.206;21.006;2022-11-03T05:46:26;100.55;;;40.30;;
16436;SDS011;8328;52.206;21.006;2022-11-03T05:48:55;87.60;;;36.13;;
16436;SDS011;8328;52.206;21.006;2022-11-03T05:51:31;92.05;;;37.08;;
16436;SDS011;8328;52.206;21.006;2022-11-03T05:54:02;92.70;;;37.78;;
16436;SDS011;8328;52.206;21.006;2022-11-03T05:56:32;94.47;;;37.55;;
16436;SDS011;8328;52.206;21.006;2022-11-03T05:58:59;96.88;;;37.45;;
16436;SDS011;8328;52.206;21.006;2022-11-03T06:01:31;97.35;;;38.38;;
16436;SDS011;8328;52.206;21.006;2022-11-03T06:04:23;98.45;;;37.25;;
16436;SDS011;8328;52.206;21.006;2022-11-03T06:07:00;94.25;;;37.33;;
16436;SDS011;8328;52.206;21.006;2022-11-03T06:09:32;107.32;;;41.17;;
16436;SDS011;8328;52.206;21.006;2022-11-03T06:12:00;98.85;;;38.20;;
16436;SDS011;8328;52.206;21.006;2022-11-03T06:14:29;98.32;;;37.53;;
16436;SDS011;8328;52.206;21.006;2022-11-03T06:17:03;95.43;;;37.08;;
16436;SDS011;8328;52.206;21.006;2022-11-03T06:19:44;100.60;;;38.63;;
16436;SDS011;8328;52.206;21.006;2022-11-03T06:22:34;98.38;;;37.42;;
16436;SDS011;8328;52.206;21.006;2022-11-03T06:25:15;97.82;;;38.08;;
16436;SDS011;8328;52.206;21.006;2022-11-03T06:27:58;99.95;;;38.03;;
16436;SDS011;8328;52.206;21.006;2022-11-03T06:30:28;98.60;;;36.75;;
16436;SDS011;8328;52.206;21.006;2022-11-03T06:33:05;103.00;;;38.88;;
16436;SDS011;8328;52.206;21.006;2022-11-03T06:35:38;99.88;;;37.72;;
16436;SDS011;8328;52.206;21.006;2022-11-03T06:38:07;101.53;;;38.92;;
16436;SDS011;8328;52.206;21.006;2022-11-03T06:40:43;99.88;;;38.47;;
16436;SDS011;8328;52.206;21.006;2022-11-03T06:46:08;102.57;;;38.83;;
16436;SDS011;8328;52.206;21.006;2022-11-03T06:48:39;111.15;;;41.75;;
16436;SDS011;8328;52.206;21.006;2022-11-03T06:51:47;105.43;;;38.63;;
16436;SDS011;8328;52.206;21.006;2022-11-03T06:53:58;111.97;;;42.33;;
16436;SDS011;8328;52.206;21.006;2022-11-03T06:56:27;104.75;;;39.30;;
16436;SDS011;8328;52.206;21.006;2022-11-03T06:58:55;111.38;;;42.30;;
16436;SDS011;8328;52.206;21.006;2022-11-03T07:03:58;104.05;;;39.38;;
16436;SDS011;8328;52.206;21.006;2022-11-03T07:06:41;98.18;;;37.45;;
16436;SDS011;8328;52.206;21.006;2022-11-03T07:09:15;103.82;;;39.53;;
16436;SDS011;8328;52.206;21.006;2022-11-03T07:14:19;102.45;;;39.67;;
16436;SDS011;8328;52.206;21.006;2022-11-03T07:16:54;106.70;;;39.45;;
16436;SDS011;8328;52.206;21.006;2022-11-03T07:19:26;103.63;;;39.42;;
16436;SDS011;8328;52.206;21.006;2022-11-03T07:22:07;100.60;;;37.83;;
16436;SDS011;8328;52.206;21.006;2022-11-03T07:24:46;101.47;;;38.13;;
16436;SDS011;8328;52.206;21.006;2022-11-03T07:27:15;101.03;;;37.45;;
16436;SDS011;8328;52.206;21.006;2022-11-03T07:30:11;112.15;;;40.63;;
16436;SDS011;8328;52.206;21.006;2022-11-03T07:32:38;102.80;;;38.67;;
16436;SDS011;8328;52.206;21.006;2022-11-03T07:37:42;108.93;;;40.10;;
16436;SDS011;8328;52.206;21.006;2022-11-03T07:40:17;106.47;;;39.63;;
16436;SDS011;8328;52.206;21.006;2022-11-03T07:42:46;109.70;;;40.13;;
16436;SDS011;8328;52.206;21.006;2022-11-03T07:48:24;106.13;;;39.30;;
16436;SDS011;8328;52.206;21.006;2022-11-03T07:50:56;104.50;;;38.67;;
16436;SDS011;8328;52.206;21.006;2022-11-03T07:53:41;106.03;;;39.58;;
16436;SDS011;8328;52.206;21.006;2022-11-03T07:56:19;108.88;;;39.50;;
16436;SDS011;8328;52.206;21.006;2022-11-03T07:58:53;98.40;;;36.30;;
16436;SDS011;8328;52.206;21.006;2022-11-03T08:01:26;104.47;;;38.67;;
16436;SDS011;8328;52.206;21.006;2022-11-03T08:03:56;103.85;;;38.42;;
16436;SDS011;8328;52.206;21.006;2022-11-03T08:06:35;107.72;;;39.78;;
16436;SDS011;8328;52.206;21.006;2022-11-03T08:09:00;102.37;;;38.40;;
16436;SDS011;8328;52.206;21.006;2022-11-03T08:11:26;110.40;;;41.70;;
16436;SDS011;8328;52.206;21.006;2022-11-03T08:13:52;106.97;;;39.40;;
16436;SDS011;8328;52.206;21.006;2022-11-03T08:16:18;107.30;;;40.27;;
16436;SDS011;8328;52.206;21.006;2022-11-03T08:18:45;101.53;;;38.00;;
16436;SDS011;8328;52.206;21.006;2022-11-03T08:21:11;116.90;;;38.45;;
16436;SDS011;8328;52.206;21.006;2022-11-03T08:23:38;108.85;;;39.70;;
16436;SDS011;8328;52.206;21.006;2022-11-03T08:26:04;111.55;;;42.20;;
16436;SDS011;8328;52.206;21.006;2022-11-03T08:28:31;107.10;;;39.95;;
16436;SDS011;8328;52.206;21.006;2022-11-03T08:30:57;100.55;;;37.65;;
16436;SDS011;8328;52.206;21.006;2022-11-03T08:33:28;105.75;;;39.53;;
16436;SDS011;8328;52.206;21.006;2022-11-03T08:36:00;103.47;;;38.85;;
16436;SDS011;8328;52.206;21.006;2022-11-03T08:38:27;101.25;;;37.30;;
16436;SDS011;8328;52.206;21.006;2022-11-03T08:40:53;101.13;;;38.07;;
16436;SDS011;8328;52.206;21.006;2022-11-03T08:43:20;103.40;;;38.75;;
16436;SDS011;8328;52.206;21.006;2022-11-03T08:45:46;103.72;;;38.50;;
16436;SDS011;8328;52.206;21.006;2022-11-03T08:48:17;100.97;;;37.78;;
16436;SDS011;8328;52.206;21.006;2022-11-03T08:50:53;101.75;;;38.03;;
16436;SDS011;8328;52.206;21.006;2022-11-03T08:53:20;102.93;;;38.28;;
16436;SDS011;8328;52.206;21.006;2022-11-03T08:55:50;104.57;;;38.53;;
16436;SDS011;8328;52.206;21.006;2022-11-03T08:58:20;105.60;;;39.22;;
16436;SDS011;8328;52.206;21.006;2022-11-03T09:00:46;103.93;;;38.95;;
16436;SDS011;8328;52.206;21.006;2022-11-03T09:03:13;108.22;;;39.47;;
16436;SDS011;8328;52.206;21.006;2022-11-03T09:05:39;106.10;;;39.22;;
16436;SDS011;8328;52.206;21.006;2022-11-03T09:08:05;111.63;;;39.45;;
16436;SDS011;8328;52.206;21.006;2022-11-03T09:10:31;106.50;;;39.28;;
16436;SDS011;8328;52.206;21.006;2022-11-03T09:12:58;111.78;;;41.42;;
16436;SDS011;8328;52.206;21.006;2022-11-03T09:15:23;106.10;;;38.63;;
16436;SDS011;8328;52.206;21.006;2022-11-03T09:17:49;107.43;;;39.20;;
16436;SDS011;8328;52.206;21.006;2022-11-03T09:20:15;106.37;;;39.37;;
16436;SDS011;8328;52.206;21.006;2022-11-03T09:22:42;107.25;;;40.17;;
16436;SDS011;8328;52.206;21.006;2022-11-03T09:25:08;104.03;;;38.53;;
16436;SDS011;8328;52.206;21.006;2022-11-03T09:27:34;110.70;;;39.85;;
16436;SDS011;8328;52.206;21.006;2022-11-03T09:30:00;106.13;;;39.17;;
16436;SDS011;8328;52.206;21.006;2022-11-03T09:32:27;105.57;;;38.95;;
16436;SDS011;8328;52.206;21.006;2022-11-03T09:34:52;105.00;;;38.80;;
16436;SDS011;8328;52.206;21.006;2022-11-03T09:37:18;106.90;;;38.70;;
16436;SDS011;8328;52.206;21.006;2022-11-03T09:39:44;109.23;;;39.67;;
16436;SDS011;8328;52.206;21.006;2022-11-03T09:42:10;105.90;;;38.80;;
16436;SDS011;8328;52.206;21.006;2022-11-03T09:44:37;104.88;;;38.50;;
16436;SDS011;8328;52.206;21.006;2022-11-03T09:47:03;114.30;;;40.05;;
16436;SDS011;8328;52.206;21.006;2022-11-03T09:49:30;105.07;;;37.90;;
16436;SDS011;8328;52.206;21.006;2022-11-03T09:51:58;108.53;;;38.92;;
16436;SDS011;8328;52.206;21.006;2022-11-03T09:54:27;110.53;;;39.88;;
16436;SDS011;8328;52.206;21.006;2022-11-03T09:56:57;111.65;;;40.40;;
16436;SDS011;8328;52.206;21.006;2022-11-03T09:59:29;111.80;;;40.42;;
16436;SDS011;8328;52.206;21.006;2022-11-03T10:01:55;109.00;;;40.00;;
16436;SDS011;8328;52.206;21.006;2022-11-03T10:04:24;112.07;;;40.70;;
16436;SDS011;8328;52.206;21.006;2022-11-03T10:06:54;110.63;;;40.30;;
16436;SDS011;8328;52.206;21.006;2022-11-03T10:09:21;106.97;;;38.45;;
16436;SDS011;8328;52.206;21.006;2022-11-03T10:11:49;108.30;;;39.03;;
16436;SDS011;8328;52.206;21.006;2022-11-03T10:14:17;116.82;;;39.33;;
16436;SDS011;8328;52.206;21.006;2022-11-03T10:16:52;110.55;;;38.88;;
16436;SDS011;8328;52.206;21.006;2022-11-03T10:19:22;112.28;;;41.20;;
16436;SDS011;8328;52.206;21.006;2022-11-03T10:21:48;115.25;;;41.50;;
16436;SDS011;8328;52.206;21.006;2022-11-03T10:24:16;118.45;;;38.97;;
16436;SDS011;8328;52.206;21.006;2022-11-03T10:26:46;112.85;;;39.83;;
16436;SDS011;8328;52.206;21.006;2022-11-03T10:29:18;113.93;;;40.03;;
16436;SDS011;8328;52.206;21.006;2022-11-03T10:31:46;112.22;;;38.90;;
16436;SDS011;8328;52.206;21.006;2022-11-03T10:39:33;116.78;;;40.38;;
16436;SDS011;8328;52.206;21.006;2022-11-03T10:41:59;114.90;;;40.40;;
16436;SDS011;8328;52.206;21.006;2022-11-03T10:44:25;117.17;;;40.23;;
16436;SDS011;8328;52.206;21.006;2022-11-03T10:47:02;115.88;;;39.65;;
16436;SDS011;8328;52.206;21.006;2022-11-03T10:49:31;122.25;;;42.20;;
16436;SDS011;8328;52.206;21.006;2022-11-03T10:52:42;115.45;;;40.10;;
16436;SDS011;8328;52.206;21.006;2022-11-03T10:54:55;114.65;;;39.85;;
16436;SDS011;8328;52.206;21.006;2022-11-03T10:57:23;114.80;;;39.60;;
16436;SDS011;8328;52.206;21.006;2022-11-03T10:59:51;119.90;;;39.90;;
16436;SDS011;8328;52.206;21.006;2022-11-03T11:02:24;118.78;;;41.58;;
16436;SDS011;8328;52.206;21.006;2022-11-03T11:05:00;112.70;;;39.38;;
16436;SDS011;8328;52.206;21.006;2022-11-03T11:07:38;108.32;;;38.45;;
16436;SDS011;8328;52.206;21.006;2022-11-03T11:12:37;110.85;;;39.72;;
16436;SDS011;8328;52.206;21.006;2022-11-03T11:15:33;113.25;;;41.15;;
16436;SDS011;8328;52.206;21.006;2022-11-03T11:18:02;109.05;;;39.50;;
16436;SDS011;8328;52.206;21.006;2022-11-03T11:22:54;102.77;;;37.97;;
16436;SDS011;8328;52.206;21.006;2022-11-03T11:31:28;99.25;;;38.65;;
16436;SDS011;8328;52.206;21.006;2022-11-03T11:36:33;104.22;;;40.97;;
16436;SDS011;8328;52.206;21.006;2022-11-03T11:55:43;97.35;;;38.03;;
16436;SDS011;8328;52.206;21.006;2022-11-03T11:58:04;99.18;;;38.60;;
16436;SDS011;8328;52.206;21.006;2022-11-03T12:00:48;96.47;;;37.72;;
16436;SDS011;8328;52.206;21.006;2022-11-03T12:03:15;102.97;;;40.47;;
16436;SDS011;8328;52.206;21.006;2022-11-03T12:05:49;98.97;;;38.63;;
16436;SDS011;8328;52.206;21.006;2022-11-03T12:08:16;98.20;;;38.20;;
16436;SDS011;8328;52.206;21.006;2022-11-03T12:10:56;99.70;;;39.15;;
16436;SDS011;8328;52.206;21.006;2022-11-03T12:16:08;100.78;;;40.55;;
16436;SDS011;8328;52.206;21.006;2022-11-03T12:18:38;98.20;;;39.13;;
16436;SDS011;8328;52.206;21.006;2022-11-03T12:21:07;94.45;;;37.97;;
16436;SDS011;8328;52.206;21.006;2022-11-03T12:23:39;95.95;;;38.53;;
16436;SDS011;8328;52.206;21.006;2022-11-03T12:26:17;96.05;;;38.47;;
16436;SDS011;8328;52.206;21.006;2022-11-03T12:28:49;92.55;;;37.00;;
16436;SDS011;8328;52.206;21.006;2022-11-03T12:31:15;93.73;;;37.83;;
16436;SDS011;8328;52.206;21.006;2022-11-03T12:33:41;99.63;;;40.27;;
16436;SDS011;8328;52.206;21.006;2022-11-03T12:36:07;98.93;;;39.20;;
16436;SDS011;8328;52.206;21.006;2022-11-03T12:38:33;95.13;;;38.28;;
16436;SDS011;8328;52.206;21.006;2022-11-03T12:40:59;93.35;;;37.67;;
16436;SDS011;8328;52.206;21.006;2022-11-03T12:43:45;96.20;;;39.35;;
16436;SDS011;8328;52.206;21.006;2022-11-03T12:46:18;94.07;;;38.20;;
16436;SDS011;8328;52.206;21.006;2022-11-03T12:48:45;91.13;;;36.63;;
16436;SDS011;8328;52.206;21.006;2022-11-03T12:51:19;95.13;;;38.65;;
16436;SDS011;8328;52.206;21.006;2022-11-03T12:53:46;93.40;;;38.40;;
16436;SDS011;8328;52.206;21.006;2022-11-03T12:56:15;94.30;;;38.80;;
16436;SDS011;8328;52.206;21.006;2022-11-03T12:58:42;92.78;;;38.22;;
16436;SDS011;8328;52.206;21.006;2022-11-03T13:01:09;92.00;;;37.85;;
16436;SDS011;8328;52.206;21.006;2022-11-03T13:03:35;91.07;;;37.78;;
16436;SDS011;8328;52.206;21.006;2022-11-03T13:06:01;96.20;;;39.85;;
16436;SDS011;8328;52.206;21.006;2022-11-03T13:08:29;93.38;;;39.00;;
16436;SDS011;8328;52.206;21.006;2022-11-03T13:10:56;94.38;;;38.90;;
16436;SDS011;8328;52.206;21.006;2022-11-03T13:13:22;88.95;;;37.13;;
16436;SDS011;8328;52.206;21.006;2022-11-03T13:15:48;99.65;;;41.45;;
16436;SDS011;8328;52.206;21.006;2022-11-03T13:18:15;94.03;;;39.13;;
16436;SDS011;8328;52.206;21.006;2022-11-03T13:20:41;92.50;;;38.78;;
16436;SDS011;8328;52.206;21.006;2022-11-03T13:23:08;89.03;;;37.13;;
16436;SDS011;8328;52.206;21.006;2022-11-03T13:25:34;89.97;;;37.73;;
16436;SDS011;8328;52.206;21.006;2022-11-03T13:28:00;88.17;;;36.87;;
16436;SDS011;8328;52.206;21.006;2022-11-03T13:30:27;97.47;;;41.42;;
16436;SDS011;8328;52.206;21.006;2022-11-03T13:32:53;93.18;;;39.38;;
16436;SDS011;8328;52.206;21.006;2022-11-03T13:35:19;96.70;;;40.50;;
16436;SDS011;8328;52.206;21.006;2022-11-03T13:37:45;85.80;;;36.40;;
16436;SDS011;8328;52.206;21.006;2022-11-03T13:40:13;88.78;;;37.70;;
16436;SDS011;8328;52.206;21.006;2022-11-03T13:42:39;91.38;;;38.80;;
16436;SDS011;8328;52.206;21.006;2022-11-03T13:45:05;87.95;;;37.53;;
16436;SDS011;8328;52.206;21.006;2022-11-03T13:47:32;87.13;;;37.45;;
16436;SDS011;8328;52.206;21.006;2022-11-03T13:49:58;88.40;;;37.30;;
16436;SDS011;8328;52.206;21.006;2022-11-03T13:52:26;88.93;;;37.97;;
16436;SDS011;8328;52.206;21.006;2022-11-03T13:54:52;88.07;;;37.72;;
16436;SDS011;8328;52.206;21.006;2022-11-03T13:57:18;87.67;;;37.77;;
16436;SDS011;8328;52.206;21.006;2022-11-03T13:59:45;85.63;;;37.33;;
16436;SDS011;8328;52.206;21.006;2022-11-03T14:02:11;91.82;;;39.15;;
16436;SDS011;8328;52.206;21.006;2022-11-03T14:04:37;87.53;;;37.00;;
16436;SDS011;8328;52.206;21.006;2022-11-03T14:07:04;88.50;;;37.92;;
16436;SDS011;8328;52.206;21.006;2022-11-03T14:09:30;86.85;;;37.22;;
16436;SDS011;8328;52.206;21.006;2022-11-03T14:11:56;87.80;;;37.83;;
16436;SDS011;8328;52.206;21.006;2022-11-03T14:14:40;89.13;;;38.40;;
16436;SDS011;8328;52.206;21.006;2022-11-03T14:17:06;90.63;;;39.83;;
16436;SDS011;8328;52.206;21.006;2022-11-03T14:19:34;87.57;;;37.90;;
16436;SDS011;8328;52.206;21.006;2022-11-03T14:22:01;86.25;;;37.55;;
16436;SDS011;8328;52.206;21.006;2022-11-03T14:24:27;86.97;;;38.00;;
16436;SDS011;8328;52.206;21.006;2022-11-03T14:26:53;87.53;;;38.30;;
16436;SDS011;8328;52.206;21.006;2022-11-03T14:29:18;91.90;;;39.80;;
16436;SDS011;8328;52.206;21.006;2022-11-03T14:31:44;85.10;;;37.20;;
16436;SDS011;8328;52.206;21.006;2022-11-03T14:34:10;85.70;;;37.67;;
16436;SDS011;8328;52.206;21.006;2022-11-03T14:36:36;86.23;;;37.20;;
16436;SDS011;8328;52.206;21.006;2022-11-03T14:39:02;85.87;;;37.60;;
16436;SDS011;8328;52.206;21.006;2022-11-03T14:41:28;87.25;;;37.95;;
16436;SDS011;8328;52.206;21.006;2022-11-03T14:44:12;90.85;;;39.13;;
16436;SDS011;8328;52.206;21.006;2022-11-03T14:46:39;87.30;;;37.53;;
16436;SDS011;8328;52.206;21.006;2022-11-03T14:49:06;88.57;;;38.28;;
16436;SDS011;8328;52.206;21.006;2022-11-03T14:51:33;88.88;;;38.55;;
16436;SDS011;8328;52.206;21.006;2022-11-03T14:53:59;90.40;;;38.58;;
16436;SDS011;8328;52.206;21.006;2022-11-03T14:56:25;90.33;;;38.53;;
16436;SDS011;8328;52.206;21.006;2022-11-03T14:58:54;90.40;;;38.42;;
16436;SDS011;8328;52.206;21.006;2022-11-03T15:01:19;89.60;;;38.00;;
16436;SDS011;8328;52.206;21.006;2022-11-03T15:03:45;90.50;;;37.57;;
16436;SDS011;8328;52.206;21.006;2022-11-03T15:06:11;94.10;;;39.40;;
16436;SDS011;8328;52.206;21.006;2022-11-03T15:08:37;93.43;;;39.38;;
16436;SDS011;8328;52.206;21.006;2022-11-03T15:11:04;90.70;;;37.95;;
16436;SDS011;8328;52.206;21.006;2022-11-03T15:13:32;91.85;;;38.45;;
16436;SDS011;8328;52.206;21.006;2022-11-03T15:15:58;92.70;;;38.75;;
16436;SDS011;8328;52.206;21.006;2022-11-03T15:18:24;88.40;;;38.08;;
16436;SDS011;8328;52.206;21.006;2022-11-03T15:20:50;91.60;;;39.77;;
16436;SDS011;8328;52.206;21.006;2022-11-03T15:23:16;86.00;;;37.33;;
16436;SDS011;8328;52.206;21.006;2022-11-03T15:25:42;90.97;;;39.20;;
16436;SDS011;8328;52.206;21.006;2022-11-03T15:28:08;84.33;;;37.17;;
16436;SDS011;8328;52.206;21.006;2022-11-03T15:30:35;89.50;;;39.08;;
16436;SDS011;8328;52.206;21.006;2022-11-03T15:33:01;87.60;;;37.63;;
16436;SDS011;8328;52.206;21.006;2022-11-03T15:35:27;86.65;;;38.20;;
16436;SDS011;8328;52.206;21.006;2022-11-03T15:37:53;86.43;;;38.53;;
16436;SDS011;8328;52.206;21.006;2022-11-03T15:40:19;85.47;;;38.60;;
16436;SDS011;8328;52.206;21.006;2022-11-03T15:42:45;83.43;;;37.07;;
16436;SDS011;8328;52.206;21.006;2022-11-03T15:45:12;86.90;;;38.17;;
16436;SDS011;8328;52.206;21.006;2022-11-03T15:47:39;85.93;;;37.83;;
16436;SDS011;8328;52.206;21.006;2022-11-03T15:50:05;83.17;;;36.83;;